sensor_id;sensor_type;location;lat;lon;timestamp;temperature;humidity
27978;DHT22;15314;49.248;6.968;2022-10-15T00:00:01;16.60;99.90
27978;DHT22;15314;49.248;6.968;2022-10-15T00:01:13;16.60;99.90
27978;DHT22;15314;49.248;6.968;2022-10-15T00:02:13;16.60;99.90
27978;DHT22;15314;49.248;6.968;2022-10-15T00:03:14;16.60;99.90
27978;DHT22;15314;49.248;6.968;2022-10-15T00:04:15;16.60;99.90
27978;DHT22;15314;49.248;6.968;2022-10-15T00:05:15;16.60;99.90
27978;DHT22;15314;49.248;6.968;2022-10-15T00:06:18;16.60;99.90
27978;DHT22;15314;49.248;6.968;2022-10-15T00:07:19;16.60;99.90
27978;DHT22;15314;49.248;6.968;2022-10-15T00:08:20;16.70;99.90
27978;DHT22;15314;49.248;6.968;2022-10-15T00:09:20;16.70;99.90
27978;DHT22;15314;49.248;6.968;2022-10-15T00:10:21;16.60;99.90
27978;DHT22;15314;49.248;6.968;2022-10-15T00:11:24;16.60;99.90
27978;DHT22;15314;49.248;6.968;2022-10-15T00:12:25;16.50;99.90
27978;DHT22;15314;49.248;6.968;2022-10-15T00:13:26;16.60;99.90
27978;DHT22;15314;49.248;6.968;2022-10-15T00:14:27;16.60;99.90
27978;DHT22;15314;49.248;6.968;2022-10-15T00:15:28;16.50;99.90
27978;DHT22;15314;49.248;6.968;2022-10-15T00:16:29;16.50;99.90
27978;DHT22;15314;49.248;6.968;2022-10-15T00:17:31;16.50;99.90
27978;DHT22;15314;49.248;6.968;2022-10-15T00:18:32;16.60;99.90
27978;DHT22;15314;49.248;6.968;2022-10-15T00:19:33;16.60;99.90
27978;DHT22;15314;49.248;6.968;2022-10-15T00:20:33;16.60;99.90
27978;DHT22;15314;49.248;6.968;2022-10-15T00:21:34;16.70;99.90
27978;DHT22;15314;49.248;6.968;2022-10-15T00:22:36;16.70;99.90
27978;DHT22;15314;49.248;6.968;2022-10-15T00:23:37;16.60;99.90
27978;DHT22;15314;49.248;6.968;2022-10-15T00:24:38;16.80;99.90
27978;DHT22;15314;49.248;6.968;2022-10-15T00:25:39;16.70;99.90
27978;DHT22;15314;49.248;6.968;2022-10-15T00:26:41;16.70;99.90
27978;DHT22;15314;49.248;6.968;2022-10-15T00:27:42;16.70;99.90
27978;DHT22;15314;49.248;6.968;2022-10-15T00:28:42;16.70;99.90
27978;DHT22;15314;49.248;6.968;2022-10-15T00:29:43;16.70;99.90
27978;DHT22;15314;49.248;6.968;2022-10-15T00:30:43;16.70;99.90
27978;DHT22;15314;49.248;6.968;2022-10-15T00:31:44;16.70;99.90
27978;DHT22;15314;49.248;6.968;2022-10-15T00:32:45;16.70;99.90
27978;DHT22;15314;49.248;6.968;2022-10-15T00:33:47;16.70;99.90
27978;DHT22;15314;49.248;6.968;2022-10-15T00:34:48;16.70;99.90
27978;DHT22;15314;49.248;6.968;2022-10-15T00:35:57;16.70;99.90
27978;DHT22;15314;49.248;6.968;2022-10-15T00:36:58;16.70;99.90
27978;DHT22;15314;49.248;6.968;2022-10-15T00:37:58;16.70;99.90
27978;DHT22;15314;49.248;6.968;2022-10-15T00:39:00;16.70;99.90
27978;DHT22;15314;49.248;6.968;2022-10-15T00:40:00;16.70;99.90
27978;DHT22;15314;49.248;6.968;2022-10-15T00:41:02;16.70;99.90
27978;DHT22;15314;49.248;6.968;2022-10-15T00:42:03;16.80;99.90
27978;DHT22;15314;49.248;6.968;2022-10-15T00:43:09;16.70;99.90
27978;DHT22;15314;49.248;6.968;2022-10-15T00:45:29;16.80;99.90
27978;DHT22;15314;49.248;6.968;2022-10-15T00:46:32;16.80;99.90
27978;DHT22;15314;49.248;6.968;2022-10-15T00:47:40;16.80;99.90
27978;DHT22;15314;49.248;6.968;2022-10-15T00:48:41;16.80;99.90
27978;DHT22;15314;49.248;6.968;2022-10-15T00:50:06;16.70;99.90
27978;DHT22;15314;49.248;6.968;2022-10-15T00:51:07;16.70;99.90
27978;DHT22;15314;49.248;6.968;2022-10-15T00:52:15;16.70;99.90
27978;DHT22;15314;49.248;6.968;2022-10-15T00:53:16;16.70;99.90
27978;DHT22;15314;49.248;6.968;2022-10-15T00:54:18;16.70;99.90
27978;DHT22;15314;49.248;6.968;2022-10-15T00:55:38;16.70;99.90
27978;DHT22;15314;49.248;6.968;2022-10-15T00:56:42;16.70;99.90
27978;DHT22;15314;49.248;6.968;2022-10-15T00:57:47;16.80;99.90
27978;DHT22;15314;49.248;6.968;2022-10-15T00:58:50;16.80;99.90
27978;DHT22;15314;49.248;6.968;2022-10-15T00:59:53;16.80;99.90
27978;DHT22;15314;49.248;6.968;2022-10-15T01:00:56;16.80;99.90
27978;DHT22;15314;49.248;6.968;2022-10-15T01:01:59;16.80;99.90
27978;DHT22;15314;49.248;6.968;2022-10-15T01:03:00;16.90;99.90
27978;DHT22;15314;49.248;6.968;2022-10-15T01:04:01;16.90;99.90
27978;DHT22;15314;49.248;6.968;2022-10-15T01:05:04;16.90;99.90
27978;DHT22;15314;49.248;6.968;2022-10-15T01:06:05;16.90;99.90
27978;DHT22;15314;49.248;6.968;2022-10-15T01:07:05;17.00;99.90
27978;DHT22;15314;49.248;6.968;2022-10-15T01:08:07;17.00;99.90
27978;DHT22;15314;49.248;6.968;2022-10-15T01:09:07;17.00;99.90
27978;DHT22;15314;49.248;6.968;2022-10-15T01:10:09;17.00;99.90
27978;DHT22;15314;49.248;6.968;2022-10-15T01:11:39;17.00;99.90
27978;DHT22;15314;49.248;6.968;2022-10-15T01:16:19;17.00;99.90
27978;DHT22;15314;49.248;6.968;2022-10-15T01:17:26;17.00;99.90
27978;DHT22;15314;49.248;6.968;2022-10-15T01:18:39;17.00;99.90
27978;DHT22;15314;49.248;6.968;2022-10-15T01:21:08;17.00;99.90
27978;DHT22;15314;49.248;6.968;2022-10-15T01:22:29;17.00;99.90
27978;DHT22;15314;49.248;6.968;2022-10-15T01:28:01;17.00;99.90
27978;DHT22;15314;49.248;6.968;2022-10-15T01:31:05;17.00;99.90
27978;DHT22;15314;49.248;6.968;2022-10-15T01:32:11;17.00;99.90
27978;DHT22;15314;49.248;6.968;2022-10-15T01:33:36;16.90;99.90
27978;DHT22;15314;49.248;6.968;2022-10-15T01:34:41;16.90;99.90
27978;DHT22;15314;49.248;6.968;2022-10-15T01:35:58;16.80;99.90
27978;DHT22;15314;49.248;6.968;2022-10-15T01:37:12;16.80;99.90
27978;DHT22;15314;49.248;6.968;2022-10-15T01:39:48;16.80;99.90
27978;DHT22;15314;49.248;6.968;2022-10-15T01:40:56;16.80;99.90
27978;DHT22;15314;49.248;6.968;2022-10-15T01:42:03;16.60;99.90
27978;DHT22;15314;49.248;6.968;2022-10-15T01:43:10;16.70;99.90
27978;DHT22;15314;49.248;6.968;2022-10-15T01:44:19;16.70;99.90
27978;DHT22;15314;49.248;6.968;2022-10-15T01:45:37;16.70;99.90
27978;DHT22;15314;49.248;6.968;2022-10-15T01:47:49;16.70;99.90
27978;DHT22;15314;49.248;6.968;2022-10-15T01:48:53;16.70;99.90
27978;DHT22;15314;49.248;6.968;2022-10-15T01:49:56;16.60;99.90
27978;DHT22;15314;49.248;6.968;2022-10-15T01:51:01;16.70;99.90
27978;DHT22;15314;49.248;6.968;2022-10-15T01:52:08;16.60;99.90
27978;DHT22;15314;49.248;6.968;2022-10-15T01:53:15;16.60;99.90
27978;DHT22;15314;49.248;6.968;2022-10-15T01:54:18;16.60;99.90
27978;DHT22;15314;49.248;6.968;2022-10-15T01:55:20;16.60;99.90
27978;DHT22;15314;49.248;6.968;2022-10-15T01:56:23;16.60;99.90
27978;DHT22;15314;49.248;6.968;2022-10-15T01:57:26;16.70;99.90
27978;DHT22;15314;49.248;6.968;2022-10-15T01:58:29;16.70;99.90
27978;DHT22;15314;49.248;6.968;2022-10-15T01:59:31;16.70;99.90
27978;DHT22;15314;49.248;6.968;2022-10-15T02:00:32;16.60;99.90
27978;DHT22;15314;49.248;6.968;2022-10-15T02:01:33;16.70;99.90
27978;DHT22;15314;49.248;6.968;2022-10-15T02:02:34;16.70;99.90
27978;DHT22;15314;49.248;6.968;2022-10-15T02:03:49;16.70;99.90
27978;DHT22;15314;49.248;6.968;2022-10-15T02:04:50;16.70;99.90
27978;DHT22;15314;49.248;6.968;2022-10-15T02:05:58;16.60;99.90
27978;DHT22;15314;49.248;6.968;2022-10-15T02:14:35;16.50;99.90
27978;DHT22;15314;49.248;6.968;2022-10-15T02:16:56;16.50;99.90
27978;DHT22;15314;49.248;6.968;2022-10-15T02:18:20;16.50;99.90
27978;DHT22;15314;49.248;6.968;2022-10-15T02:22:04;16.60;99.90
27978;DHT22;15314;49.248;6.968;2022-10-15T02:23:16;16.60;99.90
27978;DHT22;15314;49.248;6.968;2022-10-15T02:24:23;16.60;99.90
27978;DHT22;15314;49.248;6.968;2022-10-15T02:25:26;16.60;99.90
27978;DHT22;15314;49.248;6.968;2022-10-15T02:26:30;16.60;99.90
27978;DHT22;15314;49.248;6.968;2022-10-15T02:27:33;16.60;99.90
27978;DHT22;15314;49.248;6.968;2022-10-15T02:28:36;16.60;99.90
27978;DHT22;15314;49.248;6.968;2022-10-15T02:29:38;16.70;99.90
27978;DHT22;15314;49.248;6.968;2022-10-15T02:30:41;16.60;99.90
27978;DHT22;15314;49.248;6.968;2022-10-15T02:31:45;16.60;99.90
27978;DHT22;15314;49.248;6.968;2022-10-15T02:32:51;16.60;99.90
27978;DHT22;15314;49.248;6.968;2022-10-15T02:33:54;16.60;99.90
27978;DHT22;15314;49.248;6.968;2022-10-15T02:34:55;16.60;99.90
27978;DHT22;15314;49.248;6.968;2022-10-15T02:35:57;16.60;99.90
27978;DHT22;15314;49.248;6.968;2022-10-15T02:37:00;16.60;99.90
27978;DHT22;15314;49.248;6.968;2022-10-15T02:38:04;16.50;99.90
27978;DHT22;15314;49.248;6.968;2022-10-15T02:39:10;16.50;99.90
27978;DHT22;15314;49.248;6.968;2022-10-15T02:40:11;16.40;99.90
27978;DHT22;15314;49.248;6.968;2022-10-15T02:41:12;16.40;99.90
27978;DHT22;15314;49.248;6.968;2022-10-15T02:42:15;16.40;99.90
27978;DHT22;15314;49.248;6.968;2022-10-15T02:43:19;16.40;99.90
27978;DHT22;15314;49.248;6.968;2022-10-15T02:44:20;16.40;99.90
27978;DHT22;15314;49.248;6.968;2022-10-15T02:45:21;16.40;99.90
27978;DHT22;15314;49.248;6.968;2022-10-15T02:46:21;16.40;99.90
27978;DHT22;15314;49.248;6.968;2022-10-15T02:47:22;16.40;99.90
27978;DHT22;15314;49.248;6.968;2022-10-15T02:48:23;16.50;99.90
27978;DHT22;15314;49.248;6.968;2022-10-15T02:49:24;16.50;99.90
27978;DHT22;15314;49.248;6.968;2022-10-15T02:50:24;16.50;99.90
27978;DHT22;15314;49.248;6.968;2022-10-15T02:51:25;16.50;99.90
27978;DHT22;15314;49.248;6.968;2022-10-15T02:52:25;16.50;99.90
27978;DHT22;15314;49.248;6.968;2022-10-15T02:53:26;16.50;99.90
27978;DHT22;15314;49.248;6.968;2022-10-15T02:54:26;16.50;99.90
27978;DHT22;15314;49.248;6.968;2022-10-15T02:55:27;16.50;99.90
27978;DHT22;15314;49.248;6.968;2022-10-15T02:56:28;16.50;99.90
27978;DHT22;15314;49.248;6.968;2022-10-15T02:57:29;16.50;99.90
27978;DHT22;15314;49.248;6.968;2022-10-15T02:58:29;16.50;99.90
27978;DHT22;15314;49.248;6.968;2022-10-15T02:59:30;16.70;99.90
27978;DHT22;15314;49.248;6.968;2022-10-15T03:00:30;16.60;99.90
27978;DHT22;15314;49.248;6.968;2022-10-15T03:01:31;16.60;99.90
27978;DHT22;15314;49.248;6.968;2022-10-15T03:02:32;16.60;99.90
27978;DHT22;15314;49.248;6.968;2022-10-15T03:03:33;16.60;99.90
27978;DHT22;15314;49.248;6.968;2022-10-15T03:04:33;16.60;99.90
27978;DHT22;15314;49.248;6.968;2022-10-15T03:05:34;16.60;99.90
27978;DHT22;15314;49.248;6.968;2022-10-15T03:06:35;16.60;99.90
27978;DHT22;15314;49.248;6.968;2022-10-15T03:07:36;16.60;99.90
27978;DHT22;15314;49.248;6.968;2022-10-15T03:08:36;16.60;99.90
27978;DHT22;15314;49.248;6.968;2022-10-15T03:09:37;16.60;99.90
27978;DHT22;15314;49.248;6.968;2022-10-15T03:10:38;16.60;99.90
27978;DHT22;15314;49.248;6.968;2022-10-15T03:11:38;16.60;99.90
27978;DHT22;15314;49.248;6.968;2022-10-15T03:12:39;16.50;99.90
27978;DHT22;15314;49.248;6.968;2022-10-15T03:13:40;16.50;99.90
27978;DHT22;15314;49.248;6.968;2022-10-15T03:14:41;16.50;99.90
27978;DHT22;15314;49.248;6.968;2022-10-15T03:15:41;16.50;99.90
27978;DHT22;15314;49.248;6.968;2022-10-15T03:16:42;16.50;99.90
27978;DHT22;15314;49.248;6.968;2022-10-15T03:17:42;16.50;99.90
27978;DHT22;15314;49.248;6.968;2022-10-15T03:18:43;16.40;99.90
27978;DHT22;15314;49.248;6.968;2022-10-15T03:19:44;16.50;99.90
27978;DHT22;15314;49.248;6.968;2022-10-15T03:20:55;16.50;99.90
27978;DHT22;15314;49.248;6.968;2022-10-15T03:21:55;16.50;99.90
27978;DHT22;15314;49.248;6.968;2022-10-15T03:22:56;16.50;99.90
27978;DHT22;15314;49.248;6.968;2022-10-15T03:23:57;16.50;99.90
27978;DHT22;15314;49.248;6.968;2022-10-15T03:24:58;16.50;99.90
27978;DHT22;15314;49.248;6.968;2022-10-15T03:25:59;16.50;99.90
27978;DHT22;15314;49.248;6.968;2022-10-15T03:26:59;16.50;99.90
27978;DHT22;15314;49.248;6.968;2022-10-15T03:28:00;16.50;99.90
27978;DHT22;15314;49.248;6.968;2022-10-15T03:29:00;16.50;99.90
27978;DHT22;15314;49.248;6.968;2022-10-15T03:30:01;16.50;99.90
27978;DHT22;15314;49.248;6.968;2022-10-15T03:31:01;16.40;99.90
27978;DHT22;15314;49.248;6.968;2022-10-15T03:32:02;16.40;99.90
27978;DHT22;15314;49.248;6.968;2022-10-15T03:33:03;16.40;99.90
27978;DHT22;15314;49.248;6.968;2022-10-15T03:34:03;16.40;99.90
27978;DHT22;15314;49.248;6.968;2022-10-15T03:35:04;16.30;99.90
27978;DHT22;15314;49.248;6.968;2022-10-15T03:36:06;16.30;99.90
27978;DHT22;15314;49.248;6.968;2022-10-15T03:37:07;16.30;99.90
27978;DHT22;15314;49.248;6.968;2022-10-15T03:38:08;16.30;99.90
27978;DHT22;15314;49.248;6.968;2022-10-15T03:39:10;16.30;99.90
27978;DHT22;15314;49.248;6.968;2022-10-15T03:40:11;16.30;99.90
27978;DHT22;15314;49.248;6.968;2022-10-15T03:41:11;16.30;99.90
27978;DHT22;15314;49.248;6.968;2022-10-15T03:42:12;16.30;99.90
27978;DHT22;15314;49.248;6.968;2022-10-15T03:43:13;16.30;99.90
27978;DHT22;15314;49.248;6.968;2022-10-15T03:44:13;16.30;99.90
27978;DHT22;15314;49.248;6.968;2022-10-15T03:45:14;16.30;99.90
27978;DHT22;15314;49.248;6.968;2022-10-15T03:46:15;16.20;99.90
27978;DHT22;15314;49.248;6.968;2022-10-15T03:47:15;16.30;99.90
27978;DHT22;15314;49.248;6.968;2022-10-15T03:48:16;16.20;99.90
27978;DHT22;15314;49.248;6.968;2022-10-15T03:49:17;16.30;99.90
27978;DHT22;15314;49.248;6.968;2022-10-15T03:50:18;16.20;99.90
27978;DHT22;15314;49.248;6.968;2022-10-15T03:51:18;16.20;99.90
27978;DHT22;15314;49.248;6.968;2022-10-15T03:52:19;16.20;99.90
27978;DHT22;15314;49.248;6.968;2022-10-15T03:53:20;16.20;99.90
27978;DHT22;15314;49.248;6.968;2022-10-15T03:54:20;16.20;99.90
27978;DHT22;15314;49.248;6.968;2022-10-15T03:55:21;16.20;99.90
27978;DHT22;15314;49.248;6.968;2022-10-15T03:56:21;16.20;99.90
27978;DHT22;15314;49.248;6.968;2022-10-15T03:57:22;16.20;99.90
27978;DHT22;15314;49.248;6.968;2022-10-15T03:58:23;16.20;99.90
27978;DHT22;15314;49.248;6.968;2022-10-15T03:59:23;16.20;99.90
27978;DHT22;15314;49.248;6.968;2022-10-15T04:00:24;16.10;99.90
27978;DHT22;15314;49.248;6.968;2022-10-15T04:01:25;16.10;99.90
27978;DHT22;15314;49.248;6.968;2022-10-15T04:02:25;16.10;99.90
27978;DHT22;15314;49.248;6.968;2022-10-15T04:03:26;15.90;99.90
27978;DHT22;15314;49.248;6.968;2022-10-15T04:04:27;15.90;99.90
27978;DHT22;15314;49.248;6.968;2022-10-15T04:05:27;15.90;99.90
27978;DHT22;15314;49.248;6.968;2022-10-15T04:06:28;15.90;99.90
27978;DHT22;15314;49.248;6.968;2022-10-15T04:07:28;15.90;99.90
27978;DHT22;15314;49.248;6.968;2022-10-15T04:08:29;15.90;99.90
27978;DHT22;15314;49.248;6.968;2022-10-15T04:09:30;15.90;99.90
27978;DHT22;15314;49.248;6.968;2022-10-15T04:10:30;15.90;99.90
27978;DHT22;15314;49.248;6.968;2022-10-15T04:11:31;15.80;99.90
27978;DHT22;15314;49.248;6.968;2022-10-15T04:12:31;15.80;99.90
27978;DHT22;15314;49.248;6.968;2022-10-15T04:13:32;15.80;99.90
27978;DHT22;15314;49.248;6.968;2022-10-15T04:14:32;15.70;99.90
27978;DHT22;15314;49.248;6.968;2022-10-15T04:15:33;15.70;99.90
27978;DHT22;15314;49.248;6.968;2022-10-15T04:16:34;15.80;99.90
27978;DHT22;15314;49.248;6.968;2022-10-15T04:17:34;15.80;99.90
27978;DHT22;15314;49.248;6.968;2022-10-15T04:18:35;15.80;99.90
27978;DHT22;15314;49.248;6.968;2022-10-15T04:19:35;15.80;99.90
27978;DHT22;15314;49.248;6.968;2022-10-15T04:20:36;15.80;99.90
27978;DHT22;15314;49.248;6.968;2022-10-15T04:21:37;15.80;99.90
27978;DHT22;15314;49.248;6.968;2022-10-15T04:22:37;15.80;99.90
27978;DHT22;15314;49.248;6.968;2022-10-15T04:23:38;15.80;99.90
27978;DHT22;15314;49.248;6.968;2022-10-15T04:24:39;15.70;99.90
27978;DHT22;15314;49.248;6.968;2022-10-15T04:25:39;15.70;99.90
27978;DHT22;15314;49.248;6.968;2022-10-15T04:26:40;15.70;99.90
27978;DHT22;15314;49.248;6.968;2022-10-15T04:27:40;15.70;99.90
27978;DHT22;15314;49.248;6.968;2022-10-15T04:28:41;15.80;99.90
27978;DHT22;15314;49.248;6.968;2022-10-15T04:29:41;15.80;99.90
27978;DHT22;15314;49.248;6.968;2022-10-15T04:30:42;15.80;99.90
27978;DHT22;15314;49.248;6.968;2022-10-15T04:31:43;15.80;99.90
27978;DHT22;15314;49.248;6.968;2022-10-15T04:32:43;15.80;99.90
27978;DHT22;15314;49.248;6.968;2022-10-15T04:33:47;15.80;99.90
27978;DHT22;15314;49.248;6.968;2022-10-15T04:34:48;15.80;99.90
27978;DHT22;15314;49.248;6.968;2022-10-15T04:36:04;15.80;99.90
27978;DHT22;15314;49.248;6.968;2022-10-15T04:37:04;15.80;99.90
27978;DHT22;15314;49.248;6.968;2022-10-15T04:38:05;15.80;99.90
27978;DHT22;15314;49.248;6.968;2022-10-15T04:39:06;15.80;99.90
27978;DHT22;15314;49.248;6.968;2022-10-15T04:40:07;15.90;99.90
27978;DHT22;15314;49.248;6.968;2022-10-15T04:41:10;15.90;99.90
27978;DHT22;15314;49.248;6.968;2022-10-15T04:42:11;15.80;99.90
27978;DHT22;15314;49.248;6.968;2022-10-15T04:43:11;15.90;99.90
27978;DHT22;15314;49.248;6.968;2022-10-15T04:44:12;15.90;99.90
27978;DHT22;15314;49.248;6.968;2022-10-15T04:45:13;15.90;99.90
27978;DHT22;15314;49.248;6.968;2022-10-15T04:46:13;15.90;99.90
27978;DHT22;15314;49.248;6.968;2022-10-15T04:47:14;15.80;99.90
27978;DHT22;15314;49.248;6.968;2022-10-15T04:48:14;15.80;99.90
27978;DHT22;15314;49.248;6.968;2022-10-15T04:49:15;15.80;99.90
27978;DHT22;15314;49.248;6.968;2022-10-15T04:50:15;15.80;99.90
27978;DHT22;15314;49.248;6.968;2022-10-15T04:51:18;15.80;99.90
27978;DHT22;15314;49.248;6.968;2022-10-15T04:52:19;15.80;99.90
27978;DHT22;15314;49.248;6.968;2022-10-15T04:53:20;15.80;99.90
27978;DHT22;15314;49.248;6.968;2022-10-15T04:54:20;15.70;99.90
27978;DHT22;15314;49.248;6.968;2022-10-15T04:55:21;15.80;99.90
27978;DHT22;15314;49.248;6.968;2022-10-15T04:56:21;15.80;99.90
27978;DHT22;15314;49.248;6.968;2022-10-15T04:57:22;15.80;99.90
27978;DHT22;15314;49.248;6.968;2022-10-15T04:58:23;15.90;99.90
27978;DHT22;15314;49.248;6.968;2022-10-15T04:59:23;15.90;99.90
27978;DHT22;15314;49.248;6.968;2022-10-15T05:00:24;15.90;99.90
27978;DHT22;15314;49.248;6.968;2022-10-15T05:01:24;15.90;99.90
27978;DHT22;15314;49.248;6.968;2022-10-15T05:02:25;15.90;99.90
27978;DHT22;15314;49.248;6.968;2022-10-15T05:03:26;16.00;99.90
27978;DHT22;15314;49.248;6.968;2022-10-15T05:04:26;15.90;99.90
27978;DHT22;15314;49.248;6.968;2022-10-15T05:05:27;16.00;99.90
27978;DHT22;15314;49.248;6.968;2022-10-15T05:06:27;15.90;99.90
27978;DHT22;15314;49.248;6.968;2022-10-15T05:07:28;15.90;99.90
27978;DHT22;15314;49.248;6.968;2022-10-15T05:08:29;15.90;99.90
27978;DHT22;15314;49.248;6.968;2022-10-15T05:09:30;15.90;99.90
27978;DHT22;15314;49.248;6.968;2022-10-15T05:10:31;15.90;99.90
27978;DHT22;15314;49.248;6.968;2022-10-15T05:11:34;15.90;99.90
27978;DHT22;15314;49.248;6.968;2022-10-15T05:12:35;16.00;99.90
27978;DHT22;15314;49.248;6.968;2022-10-15T05:13:36;15.90;99.90
27978;DHT22;15314;49.248;6.968;2022-10-15T05:14:36;15.90;99.90
27978;DHT22;15314;49.248;6.968;2022-10-15T05:15:37;15.90;99.90
27978;DHT22;15314;49.248;6.968;2022-10-15T05:16:37;15.90;99.90
27978;DHT22;15314;49.248;6.968;2022-10-15T05:17:38;15.90;99.90
27978;DHT22;15314;49.248;6.968;2022-10-15T05:18:40;15.90;99.90
27978;DHT22;15314;49.248;6.968;2022-10-15T05:19:40;15.90;99.90
27978;DHT22;15314;49.248;6.968;2022-10-15T05:20:41;15.90;99.90
27978;DHT22;15314;49.248;6.968;2022-10-15T05:21:42;15.90;99.90
27978;DHT22;15314;49.248;6.968;2022-10-15T05:22:42;15.90;99.90
27978;DHT22;15314;49.248;6.968;2022-10-15T05:23:43;15.90;99.90
27978;DHT22;15314;49.248;6.968;2022-10-15T05:24:44;15.90;99.90
27978;DHT22;15314;49.248;6.968;2022-10-15T05:25:44;15.90;99.90
27978;DHT22;15314;49.248;6.968;2022-10-15T05:26:45;15.90;99.90
27978;DHT22;15314;49.248;6.968;2022-10-15T05:27:45;15.90;99.90
27978;DHT22;15314;49.248;6.968;2022-10-15T05:28:46;15.90;99.90
27978;DHT22;15314;49.248;6.968;2022-10-15T05:29:47;15.90;99.90
27978;DHT22;15314;49.248;6.968;2022-10-15T05:30:47;15.90;99.90
27978;DHT22;15314;49.248;6.968;2022-10-15T05:31:49;15.90;99.90
27978;DHT22;15314;49.248;6.968;2022-10-15T05:32:51;15.90;99.90
27978;DHT22;15314;49.248;6.968;2022-10-15T05:33:53;16.00;99.90
27978;DHT22;15314;49.248;6.968;2022-10-15T05:34:53;16.00;99.90
27978;DHT22;15314;49.248;6.968;2022-10-15T05:35:54;16.00;99.90
27978;DHT22;15314;49.248;6.968;2022-10-15T05:36:55;15.90;99.90
27978;DHT22;15314;49.248;6.968;2022-10-15T05:37:55;15.90;99.90
27978;DHT22;15314;49.248;6.968;2022-10-15T05:38:58;15.90;99.90
27978;DHT22;15314;49.248;6.968;2022-10-15T05:39:59;15.90;99.90
27978;DHT22;15314;49.248;6.968;2022-10-15T05:40:59;15.90;99.90
27978;DHT22;15314;49.248;6.968;2022-10-15T05:42:00;15.90;99.90
27978;DHT22;15314;49.248;6.968;2022-10-15T05:43:00;15.90;99.90
27978;DHT22;15314;49.248;6.968;2022-10-15T05:44:01;15.90;99.90
27978;DHT22;15314;49.248;6.968;2022-10-15T05:45:02;16.00;99.90
27978;DHT22;15314;49.248;6.968;2022-10-15T05:46:03;16.00;99.90
27978;DHT22;15314;49.248;6.968;2022-10-15T05:47:03;15.90;99.90
27978;DHT22;15314;49.248;6.968;2022-10-15T05:48:04;16.00;99.90
27978;DHT22;15314;49.248;6.968;2022-10-15T05:49:05;16.00;99.90
27978;DHT22;15314;49.248;6.968;2022-10-15T05:50:05;15.90;99.90
27978;DHT22;15314;49.248;6.968;2022-10-15T05:51:11;15.90;99.90
27978;DHT22;15314;49.248;6.968;2022-10-15T05:52:12;15.90;99.90
27978;DHT22;15314;49.248;6.968;2022-10-15T05:53:12;15.90;99.90
27978;DHT22;15314;49.248;6.968;2022-10-15T05:54:13;16.00;99.90
27978;DHT22;15314;49.248;6.968;2022-10-15T05:55:13;16.00;99.90
27978;DHT22;15314;49.248;6.968;2022-10-15T05:56:14;15.90;99.90
27978;DHT22;15314;49.248;6.968;2022-10-15T05:57:15;15.90;99.90
27978;DHT22;15314;49.248;6.968;2022-10-15T05:58:15;15.90;99.90
27978;DHT22;15314;49.248;6.968;2022-10-15T05:59:16;15.90;99.90
27978;DHT22;15314;49.248;6.968;2022-10-15T06:00:17;15.90;99.90
27978;DHT22;15314;49.248;6.968;2022-10-15T06:01:18;15.90;99.90
27978;DHT22;15314;49.248;6.968;2022-10-15T06:02:18;15.90;99.90
27978;DHT22;15314;49.248;6.968;2022-10-15T06:03:19;15.90;99.90
27978;DHT22;15314;49.248;6.968;2022-10-15T06:04:20;16.00;99.90
27978;DHT22;15314;49.248;6.968;2022-10-15T06:05:20;16.00;99.90
27978;DHT22;15314;49.248;6.968;2022-10-15T06:06:23;16.00;99.90
27978;DHT22;15314;49.248;6.968;2022-10-15T06:07:24;16.00;99.90
27978;DHT22;15314;49.248;6.968;2022-10-15T06:08:27;16.00;99.90
27978;DHT22;15314;49.248;6.968;2022-10-15T06:09:27;15.90;99.90
27978;DHT22;15314;49.248;6.968;2022-10-15T06:10:28;16.00;99.90
27978;DHT22;15314;49.248;6.968;2022-10-15T06:11:29;16.00;99.90
27978;DHT22;15314;49.248;6.968;2022-10-15T06:12:29;16.00;99.90
27978;DHT22;15314;49.248;6.968;2022-10-15T06:13:30;16.00;99.90
27978;DHT22;15314;49.248;6.968;2022-10-15T06:14:30;16.00;99.90
27978;DHT22;15314;49.248;6.968;2022-10-15T06:15:32;16.00;99.90
27978;DHT22;15314;49.248;6.968;2022-10-15T06:16:33;16.00;99.90
27978;DHT22;15314;49.248;6.968;2022-10-15T06:17:33;16.00;99.90
27978;DHT22;15314;49.248;6.968;2022-10-15T06:18:35;16.10;99.90
27978;DHT22;15314;49.248;6.968;2022-10-15T06:19:35;16.10;99.90
27978;DHT22;15314;49.248;6.968;2022-10-15T06:20:36;16.10;99.90
27978;DHT22;15314;49.248;6.968;2022-10-15T06:21:37;16.00;99.90
27978;DHT22;15314;49.248;6.968;2022-10-15T06:22:37;16.00;99.90
27978;DHT22;15314;49.248;6.968;2022-10-15T06:23:38;16.00;99.90
27978;DHT22;15314;49.248;6.968;2022-10-15T06:24:38;15.90;99.90
27978;DHT22;15314;49.248;6.968;2022-10-15T06:25:39;15.90;99.90
27978;DHT22;15314;49.248;6.968;2022-10-15T06:26:40;15.80;99.90
27978;DHT22;15314;49.248;6.968;2022-10-15T06:27:40;15.80;99.90
27978;DHT22;15314;49.248;6.968;2022-10-15T06:28:41;15.80;99.90
27978;DHT22;15314;49.248;6.968;2022-10-15T06:29:41;15.80;99.90
27978;DHT22;15314;49.248;6.968;2022-10-15T06:30:42;15.90;99.90
27978;DHT22;15314;49.248;6.968;2022-10-15T06:31:43;15.90;99.90
27978;DHT22;15314;49.248;6.968;2022-10-15T06:32:51;15.80;99.90
27978;DHT22;15314;49.248;6.968;2022-10-15T06:33:52;15.80;99.90
27978;DHT22;15314;49.248;6.968;2022-10-15T06:34:52;15.80;99.90
27978;DHT22;15314;49.248;6.968;2022-10-15T06:35:53;15.80;99.90
27978;DHT22;15314;49.248;6.968;2022-10-15T06:36:54;15.80;99.90
27978;DHT22;15314;49.248;6.968;2022-10-15T06:37:55;15.70;99.90
27978;DHT22;15314;49.248;6.968;2022-10-15T06:38:59;15.90;99.90
27978;DHT22;15314;49.248;6.968;2022-10-15T06:39:59;15.70;99.90
27978;DHT22;15314;49.248;6.968;2022-10-15T06:41:03;15.80;99.90
27978;DHT22;15314;49.248;6.968;2022-10-15T06:42:04;15.90;99.90
27978;DHT22;15314;49.248;6.968;2022-10-15T06:43:09;15.80;99.90
27978;DHT22;15314;49.248;6.968;2022-10-15T06:44:10;15.80;99.90
27978;DHT22;15314;49.248;6.968;2022-10-15T06:45:11;15.70;99.90
27978;DHT22;15314;49.248;6.968;2022-10-15T06:46:11;15.80;99.90
27978;DHT22;15314;49.248;6.968;2022-10-15T06:47:12;15.80;99.90
27978;DHT22;15314;49.248;6.968;2022-10-15T06:48:12;15.70;99.90
27978;DHT22;15314;49.248;6.968;2022-10-15T06:49:13;15.70;99.90
27978;DHT22;15314;49.248;6.968;2022-10-15T06:50:14;15.70;99.90
27978;DHT22;15314;49.248;6.968;2022-10-15T06:51:14;15.70;99.90
27978;DHT22;15314;49.248;6.968;2022-10-15T06:52:15;15.70;99.90
27978;DHT22;15314;49.248;6.968;2022-10-15T06:53:16;15.70;99.90
27978;DHT22;15314;49.248;6.968;2022-10-15T06:54:17;15.70;99.90
27978;DHT22;15314;49.248;6.968;2022-10-15T06:55:17;15.80;99.90
27978;DHT22;15314;49.248;6.968;2022-10-15T06:56:18;15.80;99.90
27978;DHT22;15314;49.248;6.968;2022-10-15T06:57:19;15.80;99.90
27978;DHT22;15314;49.248;6.968;2022-10-15T06:58:20;15.80;99.90